Time;durP1;ratioP1;P1;durP2;ratioP2;P2;SDS_P1;SDS_P2;PMS_P1;PMS_P2;Temp;Humidity;BMP_temperature;BMP_pressure;BME280_temperature;BME280_humidity;BME280_pressure;Samples;Min_cycle;Max_cycle;Signal;HPM_P1;HPM_P2
2021/07/24 00:01:04;;;;;;;0.10;0.10;;;;;;;20.94;45.58;99295.94;5028135;28;20050;-56
2021/07/24 00:03:30;;;;;;;0.10;0.10;;;;;;;20.89;45.69;99302.75;5029363;28;20076;-55
2021/07/24 00:05:56;;;;;;;0.10;0.10;;;;;;;20.93;45.67;99304.94;5029016;28;20131;-55
2021/07/24 00:08:22;;;;;;;0.10;0.10;;;;;;;21.03;45.46;99294.16;5029341;28;20400;-58
2021/07/24 00:10:48;;;;;;;0.10;0.10;;;;;;;21.16;45.19;99300.69;5029135;28;20107;-57
2021/07/24 00:13:14;;;;;;;0.10;0.10;;;;;;;21.16;45.13;99306.00;5029407;28;20049;-56
2021/07/24 00:15:40;;;;;;;0.10;0.10;;;;;;;21.20;45.24;99304.66;5029189;28;20049;-57
2021/07/24 00:18:06;;;;;;;0.10;0.10;;;;;;;21.23;44.93;99301.69;5029037;28;20053;-55
2021/07/24 00:20:32;;;;;;;0.10;0.10;;;;;;;21.25;44.85;99302.34;5029097;28;20420;-56
2021/07/24 00:22:58;;;;;;;0.08;0.08;;;;;;;21.24;45.30;99305.16;5029008;28;20041;-56
2021/07/24 00:25:24;;;;;;;0.20;0.20;;;;;;;21.20;45.23;99304.66;5029088;28;20053;-56
2021/07/24 00:27:50;;;;;;;0.10;0.10;;;;;;;21.30;44.97;99302.66;5029092;28;20060;-56
2021/07/24 00:30:16;;;;;;;0.10;0.10;;;;;;;21.36;44.81;99306.50;5028902;28;20539;-56
2021/07/24 00:32:48;;;;;;;0.10;0.10;;;;;;;21.37;44.88;99302.81;5011446;28;20049;-56
2021/07/24 00:35:14;;;;;;;0.10;0.10;;;;;;;21.41;44.92;99309.47;5028885;28;20049;-57
2021/07/24 00:37:40;;;;;;;0.35;0.30;;;;;;;21.40;44.80;99302.50;5031281;28;20045;-56
2021/07/24 00:40:07;;;;;;;0.10;0.10;;;;;;;21.38;44.97;99320.44;5032436;28;20541;-55
2021/07/24 00:42:33;;;;;;;0.10;0.10;;;;;;;21.36;45.05;99321.59;5032803;28;20049;-57
2021/07/24 00:45:03;;;;;;;0.10;0.10;;;;;;;21.31;45.21;99316.78;5014808;28;20049;-56
2021/07/24 00:47:54;;;;;;;0.10;0.10;;;;;;;21.38;45.17;99324.91;5011528;28;20054;-54
2021/07/24 00:51:03;;;;;;;0.10;0.10;;;;;;;21.24;44.91;99329.03;5012596;28;20049;-56
2021/07/24 00:53:49;;;;;;;0.10;0.10;;;;;;;21.24;44.82;99318.44;5012713;28;20073;-56
2021/07/24 00:56:36;;;;;;;0.10;0.10;;;;;;;21.24;44.99;99321.91;4998073;28;20093;-56
2021/07/24 00:59:22;;;;;;;0.10;0.10;;;;;;;21.23;44.92;99332.72;5011933;28;20057;-56
2021/07/24 01:02:08;;;;;;;0.20;0.20;;;;;;;21.16;45.13;99323.75;5012417;28;20058;-56
2021/07/24 01:04:54;;;;;;;0.10;0.10;;;;;;;21.13;45.38;99321.41;4997817;28;20504;-60
2021/07/24 01:07:41;;;;;;;0.47;0.28;;;;;;;21.12;45.38;99330.38;4997873;28;20056;-56
2021/07/24 01:10:27;;;;;;;0.10;0.10;;;;;;;21.13;45.34;99334.69;4997900;28;20061;-55
2021/07/24 01:13:16;;;;;;;0.10;0.10;;;;;;;21.03;45.56;99328.66;5011299;28;20038;-56
2021/07/24 01:16:03;;;;;;;0.15;0.15;;;;;;;20.98;45.82;99330.97;4997590;28;20483;-55
2021/07/24 01:18:52;;;;;;;0.10;0.10;;;;;;;20.95;45.96;99333.94;5012386;28;20426;-56
2021/07/24 01:21:50;;;;;;;0.10;0.10;;;;;;;20.93;46.12;99333.28;4997499;28;20132;-54
2021/07/24 01:24:36;;;;;;;0.10;0.10;;;;;;;20.94;46.35;99348.22;4984286;28;20054;-56
2021/07/24 01:27:25;;;;;;;0.10;0.10;;;;;;;20.89;46.26;99338.09;4997570;28;20583;-57
2021/07/24 01:30:15;;;;;;;0.17;0.17;;;;;;;20.89;46.47;99345.22;4997147;28;20049;-55
2021/07/24 01:33:02;;;;;;;0.10;0.10;;;;;;;20.88;46.46;99346.19;5012057;28;20054;-59
2021/07/24 01:35:49;;;;;;;0.10;0.10;;;;;;;20.84;46.48;99347.53;4997410;28;20058;-58
2021/07/24 01:38:39;;;;;;;0.10;0.10;;;;;;;20.77;46.69;99339.41;5012032;28;20050;-56
2021/07/24 01:41:27;;;;;;;0.10;0.10;;;;;;;20.78;46.71;99349.84;4997309;28;20080;-56
2021/07/24 01:44:14;;;;;;;0.10;0.10;;;;;;;20.73;46.75;99344.19;4997233;28;20056;-57
2021/07/24 01:47:02;;;;;;;0.10;0.10;;;;;;;20.77;46.74;99352.66;5016658;28;20054;-57
2021/07/24 01:53:02;;;;;;;0.10;0.10;;;;;;;20.82;46.91;99360.97;5031451;28;20049;-59
2021/07/24 01:55:53;;;;;;;0.10;0.10;;;;;;;20.89;46.77;99355.84;5003117;28;20045;-59
2021/07/24 01:58:39;;;;;;;0.10;0.10;;;;;;;20.94;46.60;99361.50;5003335;28;20049;-55
2021/07/24 02:01:36;;;;;;;0.10;0.10;;;;;;;20.84;46.38;99358.16;5016569;28;20144;-55
2021/07/24 02:04:22;;;;;;;0.10;0.10;;;;;;;20.76;46.26;99359.78;5003084;28;20045;-58
2021/07/24 02:07:17;;;;;;;0.10;0.10;;;;;;;20.88;46.38;99373.56;5016381;28;20045;-56
2021/07/24 02:10:09;;;;;;;0.20;0.20;;;;;;;20.89;45.71;99371.75;5029903;28;20057;-56
2021/07/24 02:13:14;;;;;;;0.10;0.10;;;;;;;20.81;45.68;99353.16;5016136;28;20176;-55
2021/07/24 02:15:59;;;;;;;0.10;0.10;;;;;;;20.59;46.37;99373.13;5016054;28;20570;-56
2021/07/24 02:18:48;;;;;;;0.17;0.17;;;;;;;20.58;46.61;99379.47;5016118;28;20046;-57
2021/07/24 02:21:44;;;;;;;0.10;0.10;;;;;;;20.61;46.47;99379.97;5016205;28;20060;-57
2021/07/24 02:24:32;;;;;;;0.10;0.10;;;;;;;20.71;46.01;99364.72;5016375;28;20041;-54
2021/07/24 02:27:19;;;;;;;0.10;0.10;;;;;;;20.90;45.88;99379.56;5015816;28;20064;-57
2021/07/24 02:30:06;;;;;;;0.10;0.10;;;;;;;20.95;45.68;99382.56;5015794;28;20049;-58
2021/07/24 02:32:53;;;;;;;0.10;0.10;;;;;;;21.01;45.37;99381.91;5029699;28;20602;-56
2021/07/24 02:35:39;;;;;;;0.10;0.10;;;;;;;20.97;45.61;99401.00;5030681;28;20570;-56
2021/07/24 02:38:38;;;;;;;0.10;0.10;;;;;;;21.01;45.49;99397.84;5029657;28;20148;-56
2021/07/24 02:41:24;;;;;;;0.10;0.10;;;;;;;21.13;45.36;99401.06;5015821;28;20134;-58
2021/07/24 02:44:13;;;;;;;0.10;0.10;;;;;;;21.14;45.47;99398.22;5030264;28;20057;-58
2021/07/24 02:46:59;;;;;;;0.10;0.10;;;;;;;21.13;45.69;99401.91;5030199;28;20589;-55
2021/07/24 02:49:45;;;;;;;0.20;0.20;;;;;;;21.17;45.26;99405.06;5030414;28;20144;-59
2021/07/24 02:52:32;;;;;;;0.10;0.10;;;;;;;21.11;45.46;99400.38;5030499;28;20045;-55
2021/07/24 02:55:18;;;;;;;0.10;0.10;;;;;;;21.19;45.38;99411.03;5015511;28;20140;-55
2021/07/24 02:58:05;;;;;;;0.10;0.10;;;;;;;21.22;45.02;99397.44;5015413;28;20056;-56
2021/07/24 03:00:51;;;;;;;0.17;0.17;;;;;;;21.26;44.95;99409.41;5029573;28;20083;-58
2021/07/24 03:03:37;;;;;;;0.10;0.10;;;;;;;21.29;45.07;99411.72;5030254;28;20155;-58
2021/07/24 03:06:23;;;;;;;0.10;0.10;;;;;;;21.29;45.24;99404.59;5029835;28;20045;-58
2021/07/24 03:09:10;;;;;;;0.10;0.10;;;;;;;21.32;44.95;99399.94;5029883;28;20088;-57
2021/07/24 03:11:56;;;;;;;0.10;0.10;;;;;;;21.40;44.67;99399.97;5029961;28;20053;-56
2021/07/24 03:14:43;;;;;;;0.10;0.10;;;;;;;21.49;44.52;99413.09;5030082;28;20049;-58
2021/07/24 03:17:30;;;;;;;0.10;0.10;;;;;;;21.57;44.53;99414.91;5030018;28;20057;-56
2021/07/24 03:20:18;;;;;;;0.10;0.10;;;;;;;21.61;44.32;99411.75;5029796;28;20053;-55
2021/07/24 03:23:04;;;;;;;0.10;0.10;;;;;;;21.64;44.08;99415.91;5029654;28;20041;-54
2021/07/24 03:25:50;;;;;;;0.10;0.10;;;;;;;21.73;44.30;99421.06;5030291;28;20053;-57
2021/07/24 03:28:36;;;;;;;0.20;0.20;;;;;;;21.72;44.41;99419.41;5029731;28;20050;-54
2021/07/24 03:31:22;;;;;;;0.10;0.10;;;;;;;21.81;44.10;99418.41;5029479;28;20049;-56
2021/07/24 03:34:08;;;;;;;0.10;0.10;;;;;;;21.85;43.80;99416.25;5014982;28;20052;-58
2021/07/24 03:36:55;;;;;;;0.10;0.10;;;;;;;21.85;43.88;99423.41;5029990;28;20056;-60
2021/07/24 03:39:41;;;;;;;0.10;0.10;;;;;;;21.89;44.04;99427.41;5030156;28;20053;-58
2021/07/24 03:42:27;;;;;;;0.10;0.10;;;;;;;21.85;44.31;99428.72;5000868;28;20482;-56
2021/07/24 03:45:12;;;;;;;0.10;0.10;;;;;;;21.89;44.10;99435.38;5029514;28;20053;-58
2021/07/24 03:47:59;;;;;;;0.10;0.10;;;;;;;21.86;44.39;99433.03;5029365;28;20045;-59
2021/07/24 03:50:46;;;;;;;0.10;0.10;;;;;;;21.93;44.27;99444.69;5029527;28;20037;-59
2021/07/24 03:53:32;;;;;;;0.10;0.10;;;;;;;21.93;44.27;99447.34;5029568;28;20065;-59
2021/07/24 03:56:19;;;;;;;0.10;0.10;;;;;;;21.94;44.14;99456.97;5014421;28;20534;-59
2021/07/24 03:59:05;;;;;;;0.10;0.10;;;;;;;21.95;43.90;99442.69;5029236;28;20057;-59
2021/07/24 04:01:53;;;;;;;0.10;0.10;;;;;;;21.96;44.18;99457.63;5029328;28;20049;-59
2021/07/24 04:04:39;;;;;;;0.10;0.10;;;;;;;22.00;43.74;99467.78;5029511;28;20192;-59
2021/07/24 04:07:25;;;;;;;0.10;0.10;;;;;;;22.15;43.45;99460.78;5029161;28;20053;-59
2021/07/24 04:10:11;;;;;;;0.10;0.10;;;;;;;22.27;42.95;99471.94;5014308;28;20061;-59
2021/07/24 04:12:57;;;;;;;0.10;0.10;;;;;;;22.32;42.69;99474.91;5033317;28;20076;-59
2021/07/24 04:15:43;;;;;;;0.10;0.10;;;;;;;22.45;42.73;99472.56;5033290;28;20049;-58
2021/07/24 04:18:32;;;;;;;0.10;0.10;;;;;;;22.51;42.39;99484.38;5018332;28;20494;-58
2021/07/24 04:21:17;;;;;;;0.10;0.10;;;;;;;22.58;42.16;99480.84;5031977;28;20088;-59
2021/07/24 04:24:04;;;;;;;0.10;0.10;;;;;;;22.71;42.01;99491.81;5033216;28;20056;-60
2021/07/24 04:26:50;;;;;;;0.10;0.10;;;;;;;22.77;42.00;99495.66;5032983;28;20459;-59
2021/07/24 04:29:35;;;;;;;0.10;0.10;;;;;;;22.66;42.22;99483.53;5033143;28;20072;-58
2021/07/24 04:32:21;;;;;;;0.10;0.10;;;;;;;22.68;41.95;99492.16;5032966;28;20049;-58
2021/07/24 04:35:08;;;;;;;0.10;0.10;;;;;;;22.77;41.81;99501.78;5032970;28;20049;-58
2021/07/24 04:37:56;;;;;;;0.10;0.10;;;;;;;22.90;41.25;99506.59;5032806;28;20179;-55
2021/07/24 04:40:42;;;;;;;0.10;0.10;;;;;;;23.05;40.78;99502.22;5018310;28;20612;-56
2021/07/24 04:43:28;;;;;;;0.10;0.10;;;;;;;23.11;40.58;99512.19;5031701;28;20557;-56
2021/07/24 04:46:13;;;;;;;0.10;0.10;;;;;;;23.19;39.90;99500.66;5017820;28;20145;-56
2021/07/24 04:49:00;;;;;;;0.10;0.10;;;;;;;23.14;39.20;99511.00;5012912;28;20054;-56
2021/07/24 04:51:45;;;;;;;0.10;0.10;;;;;;;22.81;39.76;99507.59;5012865;28;20041;-56
2021/07/24 04:54:31;;;;;;;0.10;0.10;;;;;;;22.72;40.27;99513.97;5011698;28;20053;-58
2021/07/24 04:57:17;;;;;;;0.10;0.10;;;;;;;22.66;40.28;99507.50;5012558;28;20046;-58
2021/07/24 05:00:06;;;;;;;0.10;0.10;;;;;;;22.88;39.89;99523.72;4998255;28;20046;-57
2021/07/24 05:02:52;;;;;;;0.10;0.10;;;;;;;22.91;39.87;99518.91;4997951;28;20050;-58
2021/07/24 05:05:38;;;;;;;0.10;0.10;;;;;;;22.96;39.73;99518.41;5012753;28;20129;-58
2021/07/24 05:08:24;;;;;;;0.25;0.25;;;;;;;23.08;39.44;99525.00;5012324;28;20060;-57
2021/07/24 05:11:10;;;;;;;0.95;0.95;;;;;;;23.11;38.60;99532.66;5012016;28;20085;-58
2021/07/24 05:13:56;;;;;;;0.10;0.10;;;;;;;23.12;38.47;99527.16;5012296;28;20507;-56
2021/07/24 05:16:42;;;;;;;0.35;0.35;;;;;;;22.95;38.64;99527.38;5012326;28;20507;-58
2021/07/24 05:19:28;;;;;;;0.20;0.20;;;;;;;23.08;38.80;99540.97;5012242;28;20138;-59
2021/07/24 05:22:14;;;;;;;0.20;0.20;;;;;;;23.21;37.46;99528.78;4996369;28;20049;-57
2021/07/24 05:25:00;;;;;;;0.20;0.20;;;;;;;23.72;36.75;99534.56;5012344;28;20081;-58
2021/07/24 05:27:46;;;;;;;0.25;0.25;;;;;;;24.32;35.92;99531.97;5012259;28;20050;-57
2021/07/24 05:30:32;;;;;;;0.20;0.20;;;;;;;24.48;35.34;99531.84;4997200;28;20483;-57
2021/07/24 05:33:18;;;;;;;0.20;0.20;;;;;;;24.63;34.98;99514.03;5011889;28;20104;-57
2021/07/24 05:36:04;;;;;;;0.20;0.20;;;;;;;25.27;33.35;99538.38;5012072;28;20504;-55
2021/07/24 05:38:50;;;;;;;0.20;0.20;;;;;;;25.26;33.44;99539.41;5012011;28;20083;-58
2021/07/24 05:41:35;;;;;;;0.40;0.40;;;;;;;25.33;33.45;99537.63;5011920;28;20120;-57
2021/07/24 05:44:21;;;;;;;0.20;0.20;;;;;;;25.64;32.50;99535.59;5011913;28;20423;-57
2021/07/24 05:47:07;;;;;;;0.20;0.20;;;;;;;25.81;31.01;99541.53;5018741;28;20148;-58
2021/07/24 05:49:53;;;;;;;0.20;0.20;;;;;;;25.84;31.10;99533.97;5031463;28;20408;-57
2021/07/24 05:52:39;;;;;;;0.10;0.10;;;;;;;25.90;30.99;99537.72;5031361;28;20104;-56
2021/07/24 05:55:25;;;;;;;0.20;0.20;;;;;;;26.52;30.23;99534.41;5031171;28;20519;-56
2021/07/24 05:58:11;;;;;;;0.38;0.38;;;;;;;26.89;30.09;99537.59;5031420;28;20144;-57
2021/07/24 06:00:57;;;;;;;0.20;0.20;;;;;;;26.93;28.92;99512.03;5031352;28;20129;-57
2021/07/24 06:03:42;;;;;;;0.20;0.20;;;;;;;27.10;27.85;99538.53;5031349;28;20427;-55
2021/07/24 06:06:28;;;;;;;0.17;0.17;;;;;;;27.31;27.52;99530.41;5030782;28;20048;-57
2021/07/24 06:09:14;;;;;;;0.20;0.20;;;;;;;27.32;27.01;99519.44;5030853;28;20053;-56
2021/07/24 06:12:00;;;;;;;0.20;0.20;;;;;;;27.80;26.73;99541.75;5031034;28;20049;-56
2021/07/24 06:14:46;;;;;;;0.10;0.10;;;;;;;27.72;26.21;99528.50;5031057;28;20104;-55
2021/07/24 06:17:32;;;;;;;0.10;0.10;;;;;;;27.38;27.44;99540.13;5030683;28;20573;-56
2021/07/24 06:20:18;;;;;;;0.10;0.10;;;;;;;27.30;27.31;99548.34;5015776;28;20046;-56
2021/07/24 06:23:04;;;;;;;0.10;0.10;;;;;;;27.23;27.08;99552.00;5030960;28;20514;-56
2021/07/24 06:25:50;;;;;;;0.10;0.10;;;;;;;27.17;26.52;99550.09;5030709;28;20049;-57
2021/07/24 06:28:36;;;;;;;0.10;0.10;;;;;;;27.18;26.76;99551.78;5030404;28;20054;-56
2021/07/24 06:31:22;;;;;;;0.10;0.10;;;;;;;27.54;26.23;99557.75;5030580;28;20048;-56
2021/07/24 06:34:08;;;;;;;0.20;0.20;;;;;;;28.35;24.64;99551.38;5030749;28;20052;-55
2021/07/24 06:36:54;;;;;;;0.60;0.60;;;;;;;30.64;21.83;99556.13;5030589;28;20045;-56
2021/07/24 06:39:40;;;;;;;0.40;0.40;;;;;;;33.75;18.11;99553.81;5030601;28;20458;-57
2021/07/24 06:42:26;;;;;;;0.90;0.90;;;;;;;36.87;14.72;99556.41;5030427;28;20495;-56
2021/07/24 06:45:12;;;;;;;0.40;0.40;;;;;;;37.76;13.35;99567.22;5030374;28;20045;-56
2021/07/24 06:47:58;;;;;;;0.30;0.30;;;;;;;37.92;13.67;99555.31;5015342;28;20050;-57
2021/07/24 06:50:28;;;;;;;0.50;0.50;;;;;;;40.28;12.14;99565.13;5030300;28;20073;-57
2021/07/24 06:52:59;;;;;;;0.20;0.20;;;;;;;40.93;11.27;99545.38;5030243;28;20049;-55
2021/07/24 06:55:26;;;;;;;0.40;0.40;;;;;;;40.32;11.52;99556.06;5030118;28;20080;-57
2021/07/24 06:57:52;;;;;;;0.40;0.40;;;;;;;39.02;11.82;99561.88;5030029;28;20054;-56
2021/07/24 07:00:18;;;;;;;0.17;0.17;;;;;;;35.52;14.87;99567.56;5030062;28;20102;-57
2021/07/24 07:02:44;;;;;;;0.17;0.17;;;;;;;32.99;17.54;99564.88;5030132;28;20052;-56
2021/07/24 07:05:10;;;;;;;0.20;0.20;;;;;;;31.82;19.03;99568.38;5030082;28;20789;-56
2021/07/24 07:07:37;;;;;;;0.20;0.20;;;;;;;31.15;19.50;99572.88;5029793;28;20539;-56
2021/07/24 07:10:03;;;;;;;0.30;0.30;;;;;;;30.62;19.70;99575.25;5030085;28;20080;-56
2021/07/24 07:12:30;;;;;;;0.20;0.20;;;;;;;29.83;20.49;99567.66;5011838;28;20165;-55
2021/07/24 07:15:02;;;;;;;0.20;0.20;;;;;;;29.57;21.43;99567.75;5030072;28;20057;-56
2021/07/24 07:17:28;;;;;;;0.20;0.20;;;;;;;29.39;21.07;99567.59;5011949;28;20050;-56
2021/07/24 07:19:54;;;;;;;0.13;0.13;;;;;;;29.41;20.69;99573.63;5029727;28;20046;-55
2021/07/24 07:22:20;;;;;;;0.10;0.10;;;;;;;29.25;21.07;99558.78;5029613;28;20064;-58
2021/07/24 07:24:46;;;;;;;0.20;0.20;;;;;;;28.75;21.42;99579.09;5012613;28;20107;-57
2021/07/24 07:27:12;;;;;;;0.20;0.20;;;;;;;28.02;22.00;99574.63;5012431;28;20053;-58
2021/07/24 07:29:38;;;;;;;0.30;0.30;;;;;;;27.03;23.10;99581.38;5029438;28;20396;-56
2021/07/24 07:32:04;;;;;;;0.10;0.10;;;;;;;26.82;24.00;99595.66;5029739;28;20099;-57
2021/07/24 07:34:30;;;;;;;0.10;0.10;;;;;;;26.25;25.03;99581.53;5029536;28;20095;-56
2021/07/24 07:36:56;;;;;;;0.10;0.10;;;;;;;26.35;24.99;99588.22;5029544;28;20052;-56
2021/07/24 07:39:22;;;;;;;0.10;0.10;;;;;;;26.55;25.28;99587.56;5029432;28;20050;-58
2021/07/24 07:41:48;;;;;;;0.10;0.10;;;;;;;27.07;24.67;99585.31;5029485;28;20041;-57
2021/07/24 07:44:14;;;;;;;0.10;0.10;;;;;;;26.90;24.63;99589.31;5029606;28;20096;-56
2021/07/24 07:46:40;;;;;;;0.10;0.10;;;;;;;26.91;25.09;99588.31;5010947;28;20170;-58
2021/07/24 07:49:06;;;;;;;0.10;0.10;;;;;;;27.00;24.73;99591.66;5028376;28;20065;-55
2021/07/24 07:51:32;;;;;;;0.10;0.10;;;;;;;27.10;25.01;99592.13;5029189;28;20042;-57
2021/07/24 07:53:58;;;;;;;0.10;0.10;;;;;;;27.15;25.19;99595.06;5011949;28;20136;-56
2021/07/24 07:56:24;;;;;;;0.10;0.10;;;;;;;26.92;25.61;99590.81;5029288;28;20192;-58
2021/07/24 07:58:50;;;;;;;0.10;0.10;;;;;;;27.10;25.34;99600.16;5011835;28;20053;-58
2021/07/24 08:01:16;;;;;;;0.10;0.10;;;;;;;26.97;25.51;99597.41;5029544;28;20116;-55
2021/07/24 08:03:46;;;;;;;0.57;0.57;;;;;;;26.66;25.82;99579.03;5029382;28;20053;-57
2021/07/24 08:06:13;;;;;;;0.20;0.20;;;;;;;26.68;26.15;99604.59;5011828;28;20046;-56
2021/07/24 08:08:38;;;;;;;0.10;0.10;;;;;;;26.77;26.15;99586.50;5028847;28;20115;-57
2021/07/24 08:11:04;;;;;;;0.10;0.10;;;;;;;27.04;26.13;99604.47;5029286;28;20129;-56
2021/07/24 08:13:30;;;;;;;0.10;0.10;;;;;;;27.07;26.13;99603.25;5028925;28;20057;-56
2021/07/24 08:15:57;;;;;;;0.00;0.00;;;;;;;27.22;26.14;99603.97;5029404;28;20558;-56
2021/07/24 08:18:22;;;;;;;0.00;0.00;;;;;;;26.91;26.09;99586.44;5028917;28;20454;-57
2021/07/24 08:20:49;;;;;;;0.10;0.10;;;;;;;27.02;26.46;99611.91;5029244;28;20037;-57
2021/07/24 08:23:15;;;;;;;0.10;0.10;;;;;;;26.64;26.68;99589.91;5029067;28;20053;-55
2021/07/24 08:25:42;;;;;;;0.10;0.10;;;;;;;26.45;26.88;99620.03;5011323;28;20042;-55
2021/07/24 08:28:08;;;;;;;0.10;0.10;;;;;;;26.31;27.12;99615.56;5029064;28;20114;-57
2021/07/24 08:30:34;;;;;;;0.10;0.10;;;;;;;26.61;26.49;99609.06;5028804;28;20507;-57
2021/07/24 08:33:00;;;;;;;0.10;0.10;;;;;;;26.92;26.24;99606.88;5029110;28;20053;-56
2021/07/24 08:35:26;;;;;;;0.10;0.10;;;;;;;26.85;26.38;99622.06;5029031;28;20070;-57
2021/07/24 08:37:52;;;;;;;0.03;0.03;;;;;;;26.83;26.50;99621.41;5028883;28;20049;-56
2021/07/24 08:40:18;;;;;;;0.10;0.10;;;;;;;26.70;26.58;99628.53;5029034;28;20060;-57
2021/07/24 08:42:45;;;;;;;0.10;0.10;;;;;;;26.28;26.87;99626.66;5028688;28;20177;-56
2021/07/24 08:45:13;;;;;;;0.10;0.10;;;;;;;25.98;27.55;99622.41;5028997;28;20053;-56
2021/07/24 08:47:40;;;;;;;0.10;0.10;;;;;;;25.76;27.70;99629.53;5028378;28;20112;-57
2021/07/24 08:50:07;;;;;;;0.10;0.10;;;;;;;25.67;27.91;99636.84;5028745;28;20057;-56
2021/07/24 08:52:34;;;;;;;0.10;0.10;;;;;;;25.53;28.17;99635.00;5028641;28;20058;-56
2021/07/24 08:55:00;;;;;;;0.10;0.10;;;;;;;25.82;27.79;99629.59;5028902;28;20183;-56
2021/07/24 08:57:34;;;;;;;0.10;0.10;;;;;;;26.04;26.92;99627.00;5011588;28;20566;-57
2021/07/24 09:00:12;;;;;;;0.10;0.10;;;;;;;25.96;26.94;99632.44;5032355;28;20050;-55
2021/07/24 09:02:39;;;;;;;0.10;0.10;;;;;;;25.76;27.57;99616.97;4998281;28;20056;-56
2021/07/24 09:05:06;;;;;;;0.10;0.10;;;;;;;25.77;27.60;99621.34;5014621;28;20053;-57
2021/07/24 09:07:32;;;;;;;0.10;0.10;;;;;;;25.89;27.41;99630.53;5031923;28;20049;-54
2021/07/24 09:09:59;;;;;;;0.10;0.10;;;;;;;25.92;27.45;99629.31;5031934;28;20076;-57
2021/07/24 09:12:26;;;;;;;0.10;0.10;;;;;;;25.90;27.39;99626.84;5031621;28;20080;-57
2021/07/24 09:14:52;;;;;;;0.10;0.10;;;;;;;25.77;27.57;99648.06;5013986;28;20479;-55
2021/07/24 09:17:19;;;;;;;0.10;0.10;;;;;;;25.58;27.55;99640.63;5014043;28;20439;-55
2021/07/24 09:19:45;;;;;;;0.10;0.10;;;;;;;25.65;27.39;99643.41;5031556;28;20037;-54
2021/07/24 09:22:33;;;;;;;0.00;0.00;;;;;;;25.58;27.70;99637.97;5031668;28;20136;-55
2021/07/24 09:25:15;;;;;;;0.10;0.10;;;;;;;25.65;27.84;99646.06;5031925;28;20522;-57
2021/07/24 09:27:48;;;;;;;0.10;0.10;;;;;;;25.77;27.59;99642.72;5031489;28;20060;-57
2021/07/24 09:30:32;;;;;;;0.10;0.10;;;;;;;26.02;27.72;99643.22;5031711;28;20061;-57
2021/07/24 09:33:11;;;;;;;0.10;0.10;;;;;;;26.25;26.80;99640.41;5031788;28;20584;-57
2021/07/24 09:35:40;;;;;;;0.10;0.10;;;;;;;26.50;26.46;99644.41;5014439;28;20052;-59
2021/07/24 09:38:13;;;;;;;0.10;0.10;;;;;;;26.59;26.07;99645.94;5031549;28;20085;-58
2021/07/24 09:40:40;;;;;;;0.10;0.10;;;;;;;26.34;25.94;99644.66;5031395;28;20045;-59
2021/07/24 09:43:29;;;;;;;0.10;0.10;;;;;;;26.22;26.89;99647.00;5031523;28;20156;-59
2021/07/24 09:46:21;;;;;;;0.00;0.00;;;;;;;25.97;26.00;99652.84;5031603;28;20045;-56
2021/07/24 09:48:51;;;;;;;0.10;0.10;;;;;;;26.06;26.09;99651.72;5027669;28;20053;-57
2021/07/24 09:51:35;;;;;;;;;;;;;;;26.15;25.97;99640.69;5031922;28;20049;-58
2021/07/24 09:54:03;;;;;;;0.10;0.10;;;;;;;26.27;26.38;99627.69;5031485;28;19921;-57
2021/07/24 09:56:49;;;;;;;0.17;0.17;;;;;;;26.38;25.88;99649.41;4997441;28;20050;-59
2021/07/24 09:59:28;;;;;;;0.10;0.10;;;;;;;26.40;25.72;99644.72;5031386;28;20072;-58
2021/07/24 10:02:16;;;;;;;0.10;0.10;;;;;;;26.09;25.41;99625.41;5031311;28;20049;-58
2021/07/24 10:04:44;;;;;;;0.10;0.10;;;;;;;26.08;26.01;99637.09;5031021;28;20054;-58
2021/07/24 10:07:10;;;;;;;0.10;0.10;;;;;;;26.18;25.52;99634.16;4996611;28;20139;-58
2021/07/24 10:09:37;;;;;;;0.10;0.10;;;;;;;26.24;25.74;99636.09;5030480;28;20059;-58
2021/07/24 10:12:05;;;;;;;0.90;0.90;;;;;;;26.39;25.80;99636.88;5013522;28;20076;-59
2021/07/24 10:14:31;;;;;;;0.00;0.00;;;;;;;26.10;24.97;99644.97;5031272;28;20112;-58
2021/07/24 10:16:59;;;;;;;0.10;0.10;;;;;;;25.94;25.68;99647.88;5031045;28;20045;-58
2021/07/24 10:19:25;;;;;;;0.10;0.10;;;;;;;25.55;26.15;99646.34;5031135;28;20049;-59
2021/07/24 10:21:52;;;;;;;0.08;0.08;;;;;;;25.43;26.05;99642.44;4996535;28;20549;-58
2021/07/24 10:24:18;;;;;;;0.10;0.10;;;;;;;25.81;26.17;99652.03;5030785;28;20061;-58
2021/07/24 10:27:05;;;;;;;0.10;0.10;;;;;;;25.80;25.04;99655.72;5012733;28;20064;-58
2021/07/24 10:29:57;;;;;;;0.00;0.00;;;;;;;25.99;25.37;99648.94;5012983;28;20064;-60
2021/07/24 10:32:27;;;;;;;0.10;0.10;;;;;;;26.12;25.18;99648.28;5030582;28;20052;-57
2021/07/24 10:34:53;;;;;;;0.10;0.10;;;;;;;26.04;25.34;99648.41;5012925;28;20127;-58
2021/07/24 10:37:42;;;;;;;0.00;0.00;;;;;;;26.00;25.11;99653.28;5012910;28;20081;-58
2021/07/24 10:40:17;;;;;;;0.10;0.10;;;;;;;25.76;25.47;99659.78;5030641;28;20045;-58
2021/07/24 10:42:48;;;;;;;0.10;0.10;;;;;;;25.68;25.54;99657.22;5030436;28;20103;-59
2021/07/24 10:45:34;;;;;;;0.00;0.00;;;;;;;25.76;25.69;99657.09;5030518;28;20140;-58
2021/07/24 10:48:16;;;;;;;0.10;0.10;;;;;;;25.60;26.07;99668.00;5029887;28;20106;-58
2021/07/24 10:50:58;;;;;;;0.00;0.00;;;;;;;24.70;27.74;99672.50;5030759;28;20551;-60
2021/07/24 10:53:27;;;;;;;0.10;0.10;;;;;;;24.55;28.53;99671.59;5012695;28;20052;-56
2021/07/24 10:55:54;;;;;;;0.10;0.10;;;;;;;24.15;29.01;99663.84;5028728;28;20049;-57
2021/07/24 10:58:25;;;;;;;0.10;0.10;;;;;;;24.31;29.12;99679.78;5030106;28;20053;-56
2021/07/24 11:00:55;;;;;;;0.10;0.10;;;;;;;24.46;29.31;99679.84;5030029;28;20092;-52
2021/07/24 11:03:31;;;;;;;0.10;0.10;;;;;;;24.26;29.49;99699.00;5012611;28;20055;-57
2021/07/24 11:06:01;;;;;;;0.10;0.10;;;;;;;24.09;29.75;99696.53;5012546;28;20052;-58
2021/07/24 11:09:01;;;;;;;0.00;0.00;;;;;;;24.00;29.77;99698.41;5029841;28;20053;-53
2021/07/24 11:11:45;;;;;;;0.10;0.10;;;;;;;23.72;30.23;99695.34;5015424;28;20049;-55
2021/07/24 11:14:30;;;;;;;0.80;0.80;;;;;;;23.85;29.65;99700.97;5029895;28;20108;-54
2021/07/24 11:17:05;;;;;;;0.10;0.10;;;;;;;23.94;29.91;99701.78;5030011;28;20049;-56
2021/07/24 11:19:35;;;;;;;0.10;0.10;;;;;;;24.04;29.49;99710.41;5029910;28;20115;-55
2021/07/24 11:22:16;;;;;;;0.10;0.10;;;;;;;24.18;29.34;99707.03;5029273;28;20537;-56
2021/07/24 11:25:03;;;;;;;0.10;0.10;;;;;;;24.31;29.27;99709.16;5011962;28;20582;-56
2021/07/24 11:27:29;;;;;;;0.10;0.10;;;;;;;24.52;29.03;99703.16;5019151;28;20103;-56
2021/07/24 11:30:07;;;;;;;0.10;0.10;;;;;;;24.66;28.49;99713.09;5029356;28;20053;-57
2021/07/24 11:32:38;;;;;;;9.55;0.52;;;;;;;24.81;28.13;99714.81;5029501;28;20095;-58
2021/07/24 11:35:06;;;;;;;0.10;0.10;;;;;;;24.85;27.66;99710.81;5029531;28;20060;-55
2021/07/24 11:37:45;;;;;;;0.10;0.10;;;;;;;24.84;27.19;99706.47;5029051;28;20081;-56
2021/07/24 11:40:33;;;;;;;0.10;0.10;;;;;;;24.79;27.19;99716.00;5029548;28;20058;-56
2021/07/24 11:43:10;;;;;;;0.00;0.00;;;;;;;24.79;27.05;99706.16;5029399;28;20065;-56
2021/07/24 11:45:38;;;;;;;0.00;0.00;;;;;;;24.87;27.36;99722.13;5013057;28;20057;-55
2021/07/24 11:48:18;;;;;;;0.10;0.10;;;;;;;24.79;26.69;99716.84;5029034;28;20119;-57
2021/07/24 11:50:47;;;;;;;0.10;0.10;;;;;;;24.64;26.75;99723.13;5029226;28;20065;-57
2021/07/24 11:53:18;;;;;;;0.10;0.10;;;;;;;24.70;26.82;99723.25;5029234;28;20057;-55
2021/07/24 11:55:44;;;;;;;0.10;0.10;;;;;;;24.79;26.85;99727.50;4995928;28;20049;-57
2021/07/24 11:58:14;;;;;;;0.10;0.10;;;;;;;24.94;27.16;99729.41;5029129;28;20048;-59
2021/07/24 12:00:41;;;;;;;0.10;0.10;;;;;;;24.96;26.75;99711.41;5011499;28;20049;-56
2021/07/24 12:03:19;;;;;;;0.10;0.10;;;;;;;25.23;26.31;99724.16;5011723;28;20546;-55
2021/07/24 12:05:49;;;;;;;0.10;0.10;;;;;;;25.35;26.17;99712.88;5029046;28;20076;-57
2021/07/24 12:08:17;;;;;;;0.10;0.10;;;;;;;25.50;25.89;99717.41;5029128;28;20095;-60
2021/07/24 12:10:44;;;;;;;0.10;0.10;;;;;;;25.42;26.09;99692.38;5028907;28;20479;-60
2021/07/24 12:13:11;;;;;;;0.10;0.10;;;;;;;25.54;25.64;99714.22;5011536;28;20084;-59
2021/07/24 12:15:57;;;;;;;0.10;0.10;;;;;;;25.54;25.26;99716.03;5011384;28;20063;-60
2021/07/24 12:18:23;;;;;;;0.50;0.50;;;;;;;25.56;25.02;99711.34;5011254;28;20055;-60
2021/07/24 12:20:49;;;;;;;0.10;0.10;;;;;;;25.44;24.32;99710.94;5011332;28;20128;-60
2021/07/24 12:23:18;;;;;;;0.10;0.10;;;;;;;25.16;24.45;99725.91;5029136;28;20045;-59
2021/07/24 12:25:44;;;;;;;0.00;0.00;;;;;;;25.15;24.58;99729.59;5028823;28;20045;-60
2021/07/24 12:28:10;;;;;;;0.10;0.10;;;;;;;25.18;24.49;99723.88;5011331;28;20407;-59